Time;durP1;ratioP1;P1;durP2;ratioP2;P2;SDS_P1;SDS_P2;PMS_P1;PMS_P2;Temp;Humidity;BMP_temperature;BMP_pressure;BME280_temperature;BME280_humidity;BME280_pressure;Samples;Min_cycle;Max_cycle;Signal;HPM_P1;HPM_P2
2024/03/29 09:16:22;;;;;;;;;0.00;0.00;;;;;21.94;38.27;99023.94;5493278;23;46060;-75
2024/03/29 09:18:48;;;;;;;;;0.67;0.00;;;;;21.90;38.38;99020.16;4907919;28;45425;-75
2024/03/29 09:21:13;;;;;;;;;0.00;0.00;;;;;21.95;38.58;99026.38;4902303;28;45339;-76
2024/03/29 09:23:41;;;;;;;;;0.00;0.00;;;;;22.05;38.90;99039.09;4901971;28;45282;-74
2024/03/29 09:26:07;;;;;;;;;0.00;0.00;;;;;22.01;38.62;99026.53;4901454;28;47172;-74
2024/03/29 09:28:34;;;;;;;;;0.00;0.00;;;;;22.07;38.35;99028.25;4901854;28;45474;-74
2024/03/29 09:31:00;;;;;;;;;0.00;0.00;;;;;22.02;38.56;99015.69;4902255;28;45477;-74
2024/03/29 09:33:25;;;;;;;;;0.00;0.00;;;;;22.07;38.72;99010.53;4901733;28;45418;-74
2024/03/29 09:35:51;;;;;;;;;0.00;0.00;;;;;22.00;38.42;98991.28;4901620;28;46024;-74
2024/03/29 09:38:16;;;;;;;;;0.67;0.00;;;;;22.10;38.78;99014.56;4901853;28;45371;-74
2024/03/29 09:40:41;;;;;;;;;0.00;0.00;;;;;22.10;38.75;99027.81;4902081;28;45548;-73
2024/03/29 09:43:10;;;;;;;;;0.00;0.00;;;;;22.05;38.33;99015.25;4901684;29;45481;-73
2024/03/29 09:45:37;;;;;;;;;0.67;0.00;;;;;22.16;38.28;99032.22;4900352;29;47133;-73
2024/03/29 09:48:04;;;;;;;;;0.00;0.00;;;;;22.15;38.78;99022.66;4901431;28;45407;-73
2024/03/29 09:50:31;;;;;;;;;1.33;0.00;;;;;22.21;38.67;99039.50;4901545;28;45327;-73
2024/03/29 09:52:58;;;;;;;;;0.00;0.00;;;;;22.22;38.75;99035.81;4915805;28;45319;-77
2024/03/29 09:55:23;;;;;;;;;0.00;0.00;;;;;22.12;38.75;99020.44;4920391;28;47234;-79
2024/03/29 09:57:49;;;;;;;;;0.00;0.00;;;;;22.20;38.29;99026.47;4920722;28;45334;-79
2024/03/29 10:00:15;;;;;;;;;0.00;0.00;;;;;22.22;38.68;99035.81;4921004;28;45321;-79
2024/03/29 10:02:41;;;;;;;;;0.00;0.00;;;;;22.27;38.44;99048.38;4920093;28;45485;-77
2024/03/29 10:05:08;;;;;;;;;1.00;0.00;;;;;22.24;38.58;99035.59;4920739;28;46153;-79
2024/03/29 10:07:36;;;;;;;;;0.00;0.00;;;;;22.30;38.52;99024.09;4920550;28;45359;-79
2024/03/29 10:10:02;;;;;;;;;1.67;0.00;;;;;22.28;38.21;99031.44;4920635;28;45394;-78
2024/03/29 10:12:28;;;;;;;;;0.00;0.00;;;;;22.32;38.16;99037.91;4919695;28;45415;-76
2024/03/29 10:15:00;;;;;;;;;2.00;0.00;;;;;22.23;38.63;99018.88;4920452;28;46623;-77
2024/03/29 10:17:25;;;;;;;;;0.00;0.00;;;;;22.28;38.10;99031.44;4919725;28;45310;-75
2024/03/29 10:19:50;;;;;;;;;1.00;0.00;;;;;22.31;38.14;99036.28;4920196;28;45383;-75
2024/03/29 10:22:16;;;;;;;;;0.00;0.00;;;;;22.35;38.55;99048.03;4920332;28;45363;-76
2024/03/29 10:24:42;;;;;;;;;0.00;0.00;;;;;22.37;38.12;99061.06;4920072;28;46904;-75
2024/03/29 10:27:07;;;;;;;;;0.00;0.00;;;;;22.36;38.16;99062.91;4920114;28;45304;-75
2024/03/29 10:29:33;;;;;;;;;1.00;0.67;;;;;22.35;38.36;99058.63;4920459;28;45309;-76
2024/03/29 10:31:59;;;;;;;;;0.00;0.00;;;;;22.33;38.63;99050.13;4919990;28;45569;-76
2024/03/29 10:34:25;;;;;;;;;0.00;0.00;;;;;22.35;38.19;99040.09;4920150;28;46219;-75
2024/03/29 10:36:50;;;;;;;;;0.00;0.00;;;;;22.35;38.75;99042.75;4920022;28;45421;-75
2024/03/29 10:39:16;;;;;;;;;0.00;0.00;;;;;22.34;38.51;99050.94;4920250;28;45383;-75
2024/03/29 10:41:43;;;;;;;;;0.00;0.00;;;;;22.35;38.20;99044.59;4920139;28;45359;-76
2024/03/29 10:44:14;;;;;;;;;0.33;0.00;;;;;22.34;38.69;99049.09;4919887;28;46271;-75
2024/03/29 10:46:41;;;;;;;;;0.00;0.00;;;;;22.33;38.01;99046.69;4919534;28;45407;-75
2024/03/29 10:49:09;;;;;;;;;0.00;0.00;;;;;22.33;38.56;99047.47;4919861;28;45450;-76
2024/03/29 10:51:39;;;;;;;;;0.00;0.00;;;;;22.28;38.52;99028.78;4919782;28;45256;-75
2024/03/29 10:54:05;;;;;;;;;0.33;0.00;;;;;22.26;38.33;99031.69;4919636;28;46078;-75
2024/03/29 10:56:35;;;;;;;;;0.00;0.00;;;;;22.33;38.64;99038.72;4919569;28;45376;-75
2024/03/29 10:59:10;;;;;;;;;0.00;0.00;;;;;22.33;38.66;99036.09;4919999;28;45430;-75
2024/03/29 11:01:37;;;;;;;;;0.00;0.00;;;;;22.26;38.27;99029.03;4919454;28;45378;-75
2024/03/29 11:04:13;;;;;;;;;0.00;0.00;;;;;22.32;38.13;99037.91;4919634;28;46236;-76
2024/03/29 11:06:40;;;;;;;;;0.00;0.00;;;;;22.32;38.23;99024.66;4919489;28;45437;-76
2024/03/29 11:09:12;;;;;;;;;0.00;0.00;;;;;22.25;38.88;99005.41;4919661;28;45321;-75
2024/03/29 11:11:39;;;;;;;;;0.67;0.00;;;;;22.32;38.30;99016.72;4919610;28;45452;-76
2024/03/29 11:14:16;;;;;;;;;3.67;0.33;;;;;22.33;38.72;99012.25;4919135;28;46504;-75
2024/03/29 11:16:45;;;;;;;;;0.67;0.33;;;;;22.34;38.75;99014.66;4919074;28;45311;-74
2024/03/29 11:19:13;;;;;;;;;0.00;0.00;;;;;22.35;38.52;99021.53;4919614;28;45294;-75
2024/03/29 11:21:41;;;;;;;;;0.00;0.00;;;;;22.33;38.81;99015.66;4919334;28;45372;-75
2024/03/29 11:24:08;;;;;;;;;0.00;0.00;;;;;22.35;38.66;99016.25;4918134;28;46037;-75
2024/03/29 11:26:34;;;;;;;;;0.00;0.00;;;;;22.37;38.43;99005.44;4919258;28;45427;-75
2024/03/29 11:29:00;;;;;;;;;0.00;0.00;;;;;22.36;38.42;99011.75;4919149;28;45407;-75
2024/03/29 11:31:26;;;;;;;;;0.00;0.00;;;;;22.26;38.70;98994.59;4919419;28;45390;-75
2024/03/29 11:33:53;;;;;;;;;0.00;0.00;;;;;22.39;38.67;99014.78;4919326;28;45427;-75
2024/03/29 11:36:24;;;;;;;;;0.00;0.00;;;;;22.39;38.25;99011.31;4919197;28;45386;-75
2024/03/29 11:38:55;;;;;;;;;0.67;0.00;;;;;22.39;38.81;99020.06;4919292;28;45342;-76
2024/03/29 11:41:26;;;;;;;;;0.67;0.00;;;;;22.37;38.23;99010.75;4919245;28;45374;-75
2024/03/29 11:43:55;;;;;;;;;0.33;0.00;;;;;22.36;38.23;99007.28;4917405;28;46189;-75
2024/03/29 11:46:21;;;;;;;;;0.00;0.00;;;;;22.40;38.30;99015.59;4918945;28;45291;-75
2024/03/29 11:48:51;;;;;;;;;0.00;0.00;;;;;22.35;38.34;99005.66;4919135;28;45413;-75
2024/03/29 11:51:20;;;;;;;;;0.00;0.00;;;;;22.42;38.40;99015.34;4919016;28;45346;-76
2024/03/29 11:53:46;;;;;;;;;0.67;0.00;;;;;22.41;38.39;99003.94;4918967;28;46188;-76
2024/03/29 11:56:11;;;;;;;;;0.00;0.00;;;;;22.37;38.67;99000.94;4918739;28;45258;-76
2024/03/29 11:58:38;;;;;;;;;0.00;0.00;;;;;22.42;38.79;99000.25;4918619;28;45359;-75
2024/03/29 12:01:04;;;;;;;;;0.00;0.00;;;;;22.39;38.75;98998.06;4918891;28;45517;-75
2024/03/29 12:03:31;;;;;;;;;0.00;0.00;;;;;22.39;38.83;99012.13;4918744;28;46025;-75
2024/03/29 12:05:58;;;;;;;;;2.67;0.00;;;;;22.40;38.85;99019.03;4919364;28;45443;-75
2024/03/29 12:08:26;;;;;;;;;0.67;0.00;;;;;22.38;38.41;99030.88;4933738;28;45420;-75
2024/03/29 12:10:52;;;;;;;;;0.00;0.00;;;;;22.42;38.93;99040.00;4919283;28;45626;-76
2024/03/29 12:13:17;;;;;;;;;0.00;0.00;;;;;22.42;38.79;99036.53;4918102;28;46164;-75
2024/03/29 12:15:43;;;;;;;;;1.00;0.00;;;;;22.42;38.36;99039.19;4918487;28;45302;-76
2024/03/29 12:18:09;;;;;;;;;0.00;0.00;;;;;22.38;38.78;99028.22;4918842;28;45414;-75
2024/03/29 12:20:37;;;;;;;;;0.67;0.67;;;;;22.43;38.89;99044.25;4918448;28;45460;-75
2024/03/29 12:23:03;;;;;;;;;1.33;0.00;;;;;22.38;38.61;99030.88;4918605;28;46280;-75
2024/03/29 12:25:30;;;;;;;;;0.00;0.00;;;;;22.42;38.51;99050.59;4918472;28;45389;-76
2024/03/29 12:27:57;;;;;;;;;0.00;0.00;;;;;22.32;39.12;99029.97;4918274;28;45409;-76
2024/03/29 12:30:23;;;;;;;;;0.00;0.00;;;;;22.42;38.69;99029.41;4918633;28;45307;-76
2024/03/29 12:32:59;;;;;;;;;0.00;0.00;;;;;22.33;38.59;99022.84;4918240;28;46025;-75
2024/03/29 12:35:27;;;;;;;;;0.00;0.00;;;;;22.42;39.06;99032.06;4917864;28;45481;-75
2024/03/29 12:37:53;;;;;;;;;1.33;0.00;;;;;22.34;39.05;99016.47;4918398;28;45307;-76
2024/03/29 12:40:22;;;;;;;;;0.00;0.00;;;;;22.41;38.36;99038.38;4918423;28;45403;-75
2024/03/29 12:42:52;;;;;;;;;0.00;0.00;;;;;22.43;38.76;99027.56;4917837;28;47301;-75
2024/03/29 12:45:18;;;;;;;;;0.00;0.00;;;;;22.42;39.12;99021.47;4918189;28;46321;-75
2024/03/29 12:47:45;;;;;;;;;0.00;0.00;;;;;22.41;38.60;99019.84;4918337;28;45465;-76
2024/03/29 12:50:14;;;;;;;;;0.00;0.00;;;;;22.43;39.13;99028.34;4918250;28;45359;-75
2024/03/29 12:52:40;;;;;;;;;0.00;0.00;;;;;22.43;38.75;99023.06;4918099;28;47106;-75
2024/03/29 12:55:10;;;;;;;;;0.00;0.00;;;;;22.31;38.90;99011.63;4918234;28;45386;-76
2024/03/29 12:57:37;;;;;;;;;2.67;0.00;;;;;22.39;38.55;99016.59;4917880;28;45383;-75
2024/03/29 13:00:08;;;;;;;;;0.67;0.67;;;;;22.44;39.03;99024.69;4918218;28;45383;-76
2024/03/29 13:02:34;;;;;;;;;0.00;0.00;;;;;22.44;38.68;99037.13;4918130;28;46167;-75
2024/03/29 13:05:01;;;;;;;;;0.00;0.00;;;;;22.43;38.59;99036.31;4918062;28;45382;-75
2024/03/29 13:07:27;;;;;;;;;0.00;0.00;;;;;22.43;39.13;99043.47;4918098;28;45388;-76
2024/03/29 13:09:52;;;;;;;;;0.67;0.00;;;;;22.43;38.52;99052.22;4917708;28;45364;-75
2024/03/29 13:12:18;;;;;;;;;0.00;0.00;;;;;22.40;38.82;99050.81;4917852;28;46227;-75
2024/03/29 13:14:43;;;;;;;;;0.00;0.00;;;;;22.39;38.48;99049.22;4918032;28;45295;-75
2024/03/29 13:17:08;;;;;;;;;2.33;0.00;;;;;22.43;38.66;99062.03;4917788;28;45322;-75
2024/03/29 13:19:34;;;;;;;;;0.00;0.00;;;;;22.34;38.76;99045.63;4917927;28;45412;-75
2024/03/29 13:21:59;;;;;;;;;1.00;0.00;;;;;22.43;39.07;99046.91;4917455;28;46984;-75
2024/03/29 13:24:25;;;;;;;;;0.00;0.00;;;;;22.42;38.70;99050.59;4917361;28;45351;-75
2024/03/29 13:26:50;;;;;;;;;0.67;0.00;;;;;22.39;38.61;99043.09;4917923;28;45324;-75
2024/03/29 13:29:15;;;;;;;;;0.00;0.00;;;;;22.42;39.14;99053.25;4917990;28;45357;-76
2024/03/29 13:31:42;;;;;;;;;0.67;0.67;;;;;22.44;39.09;99042.41;4917691;28;45461;-75
2024/03/29 13:34:13;;;;;;;;;0.00;0.00;;;;;22.42;38.62;99047.97;4917815;28;45443;-76
2024/03/29 13:36:39;;;;;;;;;0.00;0.00;;;;;22.42;39.08;99042.66;4917634;28;45489;-76
2024/03/29 13:39:05;;;;;;;;;0.00;0.00;;;;;22.36;38.68;99019.72;4917445;28;45439;-75
2024/03/29 13:41:30;;;;;;;;;1.00;0.00;;;;;22.36;38.67;99025.81;4917643;28;46163;-75
2024/03/29 13:43:56;;;;;;;;;0.00;0.00;;;;;22.43;38.92;99041.59;4917503;28;45446;-75
2024/03/29 13:46:21;;;;;;;;;0.00;0.00;;;;;22.45;39.29;99050.16;4917759;28;45457;-75
2024/03/29 13:48:47;;;;;;;;;0.00;0.00;;;;;22.45;39.17;99044.06;4919976;28;45435;-75
2024/03/29 13:51:12;;;;;;;;;0.00;0.00;;;;;22.32;39.14;99024.66;4920643;28;46107;-75
2024/03/29 13:53:38;;;;;;;;;0.00;0.00;;;;;22.45;38.68;99039.56;4920429;28;45358;-76
2024/03/29 13:56:04;;;;;;;;;0.00;0.00;;;;;22.38;38.84;99036.19;4920689;28;45480;-75
2024/03/29 13:58:30;;;;;;;;;0.00;0.00;;;;;22.46;38.74;99046.47;4920885;28;45675;-75
2024/03/29 14:00:59;;;;;;;;;0.00;0.00;;;;;22.47;38.97;99047.28;4920621;28;45306;-75
2024/03/29 14:03:25;;;;;;;;;0.00;0.00;;;;;22.47;39.14;99047.28;4920474;28;45298;-75
2024/03/29 14:05:51;;;;;;;;;0.00;0.00;;;;;22.46;39.24;99046.47;4920559;28;45356;-75
2024/03/29 14:08:16;;;;;;;;;0.00;0.00;;;;;22.45;39.26;99044.06;4918934;28;45485;-76
2024/03/29 14:10:42;;;;;;;;;0.33;0.00;;;;;22.47;39.06;99052.56;4920453;28;46314;-75
2024/03/29 14:13:09;;;;;;;;;0.67;0.00;;;;;22.40;39.14;99050.03;4920469;28;45322;-75
2024/03/29 14:15:34;;;;;;;;;0.00;0.00;;;;;22.47;38.91;99044.63;4920502;28;45410;-75
2024/03/29 14:17:59;;;;;;;;;0.00;0.00;;;;;22.46;39.12;99043.81;4920576;28;45417;-75
2024/03/29 14:20:25;;;;;;;;;0.00;0.00;;;;;22.47;39.04;99047.28;4920271;28;45425;-75
2024/03/29 14:22:54;;;;;;;;;0.00;0.00;;;;;22.47;39.13;99044.63;4920156;28;45358;-75
2024/03/29 14:25:20;;;;;;;;;0.00;0.00;;;;;22.34;39.13;99027.91;4920552;28;45429;-75
2024/03/29 14:27:54;;;;;;;;;0.67;0.00;;;;;22.46;39.19;99057.06;4920336;28;45371;-76
2024/03/29 14:30:20;;;;;;;;;0.00;0.00;;;;;22.47;38.74;99058.69;4920306;28;47234;-75
2024/03/29 14:32:47;;;;;;;;;0.00;0.00;;;;;22.47;38.59;99060.53;4920158;28;45441;-75
2024/03/29 14:35:14;;;;;;;;;0.00;0.00;;;;;22.47;38.71;99068.47;4920294;28;45314;-75
2024/03/29 14:37:40;;;;;;;;;0.00;0.00;;;;;22.48;39.34;99070.88;4919752;28;45425;-75
2024/03/29 14:40:05;;;;;;;;;0.00;0.00;;;;;22.48;39.02;99062.16;4920031;28;45342;-75
2024/03/29 14:42:31;;;;;;;;;0.00;0.00;;;;;22.48;38.86;99057.63;4920139;28;45446;-75
2024/03/29 14:44:58;;;;;;;;;0.00;0.00;;;;;22.49;38.85;99053.16;4920207;28;45359;-75
2024/03/29 14:47:23;;;;;;;;;0.00;0.00;;;;;22.44;38.92;99050.38;4920220;28;45420;-75
2024/03/29 14:49:48;;;;;;;;;0.00;0.00;;;;;22.49;38.85;99053.16;4919767;28;45402;-75
2024/03/29 14:52:14;;;;;;;;;0.00;0.00;;;;;22.50;38.85;99060.06;4919806;28;45404;-75
2024/03/29 14:54:39;;;;;;;;;1.00;0.00;;;;;22.44;38.71;99050.38;4920055;28;45790;-75
2024/03/29 14:57:05;;;;;;;;;0.67;0.00;;;;;22.49;39.36;99043.38;4919822;28;45454;-75
2024/03/29 14:59:32;;;;;;;;;2.33;0.33;;;;;22.49;39.12;99047.84;4919560;28;46307;-75
2024/03/29 15:01:58;;;;;;;;;0.00;0.00;;;;;22.48;39.24;99043.59;4919805;28;45433;-73
2024/03/29 15:04:23;;;;;;;;;0.00;0.00;;;;;22.44;39.29;99037.94;4919874;28;45465;-73
2024/03/29 15:06:49;;;;;;;;;0.00;0.00;;;;;22.44;39.14;99051.19;4919529;28;45353;-73
2024/03/29 15:09:15;;;;;;;;;1.00;0.33;;;;;22.47;38.82;99047.28;4919588;28;45419;-75
2024/03/29 15:11:40;;;;;;;;;0.00;0.00;;;;;22.48;38.94;99054.97;4919614;28;45398;-75
2024/03/29 15:14:06;;;;;;;;;0.00;0.00;;;;;22.48;39.20;99056.84;4919880;28;45425;-75
2024/03/29 15:16:31;;;;;;;;;0.00;0.00;;;;;22.47;38.73;99065.81;4919253;28;45367;-76
2024/03/29 15:18:57;;;;;;;;;0.00;0.00;;;;;22.47;39.25;99071.13;4919532;28;46981;-75
2024/03/29 15:21:23;;;;;;;;;0.00;0.00;;;;;22.48;39.29;99070.88;4919107;28;45525;-75
2024/03/29 15:23:48;;;;;;;;;0.00;0.00;;;;;22.44;38.73;99071.56;4919620;28;45322;-75
2024/03/29 15:26:14;;;;;;;;;1.33;0.00;;;;;22.48;38.66;99088.66;4919279;28;45248;-75
2024/03/29 15:31:23;;;;;;;;;0.00;0.00;;;;;22.43;38.81;99083.22;4919447;28;45280;-75
2024/03/29 15:33:52;;;;;;;;;0.00;0.00;;;;;22.45;38.72;99074.00;4919224;28;45377;-75
2024/03/29 15:36:18;;;;;;;;;0.00;0.00;;;;;22.45;39.25;99081.97;4933690;28;45344;-74
2024/03/29 15:38:44;;;;;;;;;2.33;0.00;;;;;22.45;39.35;99068.72;4919087;28;46175;-75
2024/03/29 15:41:10;;;;;;;;;0.00;0.00;;;;;22.46;38.86;99083.56;4919064;28;45433;-75
2024/03/29 15:43:36;;;;;;;;;0.00;0.00;;;;;22.45;38.92;99073.19;4919234;28;45330;-75
2024/03/29 15:46:02;;;;;;;;;1.00;0.00;;;;;22.42;39.27;99071.81;4919229;28;45406;-75
2024/03/29 15:48:28;;;;;;;;;0.00;0.00;;;;;22.45;38.82;99070.56;4918963;28;45362;-75
2024/03/29 15:50:54;;;;;;;;;0.00;0.00;;;;;22.44;38.89;99075.03;4933516;28;45415;-75
2024/03/29 15:53:20;;;;;;;;;0.00;0.00;;;;;22.39;38.78;99072.25;4919211;28;45654;-73
2024/03/29 15:55:46;;;;;;;;;0.00;0.00;;;;;22.45;39.42;99081.16;4918759;28;45493;-73
2024/03/29 15:58:12;;;;;;;;;0.00;0.00;;;;;22.44;38.69;99068.91;4918961;28;45409;-75
2024/03/29 16:00:42;;;;;;;;;0.00;0.00;;;;;22.42;39.08;99069.16;4918707;28;45439;-75
2024/03/29 16:03:12;;;;;;;;;0.33;0.00;;;;;22.43;38.71;99067.31;4918967;28;45381;-75
2024/03/29 16:05:41;;;;;;;;;1.00;0.00;;;;;22.42;39.01;99068.34;4918420;28;45327;-75
2024/03/29 16:08:07;;;;;;;;;0.00;0.00;;;;;22.36;39.02;99060.25;4918558;28;46993;-75
2024/03/29 16:10:33;;;;;;;;;0.00;0.00;;;;;22.34;38.89;99053.56;4917903;28;45299;-75
2024/03/29 16:12:59;;;;;;;;;0.00;0.00;;;;;22.40;38.71;99055.34;4918796;28;45295;-75
2024/03/29 16:15:25;;;;;;;;;0.00;0.00;;;;;22.41;38.78;99056.94;4918494;28;45593;-75
2024/03/29 16:17:51;;;;;;;;;0.00;0.00;;;;;22.39;39.42;99064.31;4918510;28;46293;-75
2024/03/29 16:20:16;;;;;;;;;0.00;0.00;;;;;22.39;39.15;99072.25;4917895;28;45368;-75
2024/03/29 16:22:41;;;;;;;;;0.00;0.00;;;;;22.38;39.35;99054.72;4918784;28;45374;-75
2024/03/29 16:25:08;;;;;;;;;0.00;0.00;;;;;22.39;39.42;99053.72;4918454;28;45378;-75
2024/03/29 16:27:33;;;;;;;;;0.00;0.00;;;;;22.37;39.38;99051.28;4918538;28;47130;-75
2024/03/29 16:29:59;;;;;;;;;2.00;0.00;;;;;22.37;38.75;99066.38;4918447;28;45366;-75
2024/03/29 16:32:24;;;;;;;;;0.00;0.00;;;;;22.38;38.79;99065.31;4918512;28;45462;-75
2024/03/29 16:34:49;;;;;;;;;0.00;0.00;;;;;22.37;39.25;99061.91;4918256;28;45498;-75
2024/03/29 16:37:15;;;;;;;;;0.00;0.00;;;;;22.37;39.39;99059.25;4918233;28;46308;-75
2024/03/29 16:39:42;;;;;;;;;0.00;0.00;;;;;22.28;39.31;99044.69;4918211;28;45361;-75
2024/03/29 16:42:08;;;;;;;;;1.00;0.00;;;;;22.33;39.42;99065.22;4918478;28;45390;-74
2024/03/29 16:44:33;;;;;;;;;0.00;0.00;;;;;22.37;39.17;99076.97;4918320;28;45550;-75
2024/03/29 16:46:58;;;;;;;;;0.00;0.00;;;;;22.35;39.19;99066.59;4918327;28;47116;-75
2024/03/29 16:49:25;;;;;;;;;0.00;0.00;;;;;22.36;39.41;99070.06;4917882;28;45509;-75
2024/03/29 16:51:51;;;;;;;;;0.00;0.00;;;;;22.36;39.39;99072.69;4918390;28;45389;-75
2024/03/29 16:54:16;;;;;;;;;0.00;0.00;;;;;22.36;38.98;99072.69;4918264;28;45538;-75
2024/03/29 16:56:43;;;;;;;;;0.00;0.00;;;;;22.35;39.31;99076.41;4917976;28;46253;-75
2024/03/29 16:59:08;;;;;;;;;0.00;0.00;;;;;22.35;38.79;99073.75;4918216;28;45328;-75
2024/03/29 17:01:33;;;;;;;;;0.00;0.00;;;;;22.34;38.88;99074.78;4918277;28;45699;-74
2024/03/29 17:03:59;;;;;;;;;0.00;0.00;;;;;22.34;38.86;99077.41;4917821;28;45502;-75
2024/03/29 17:06:24;;;;;;;;;0.00;0.00;;;;;22.28;39.08;99074.63;4917959;28;46094;-75
2024/03/29 17:08:50;;;;;;;;;0.00;0.00;;;;;22.33;39.37;99075.81;4918146;28;45275;-75
2024/03/29 17:11:15;;;;;;;;;0.67;0.00;;;;;22.33;39.27;99076.59;4918288;28;45679;-75
2024/03/29 17:13:41;;;;;;;;;0.00;0.00;;;;;22.32;39.42;99082.97;4918236;28;45406;-75
2024/03/29 17:16:06;;;;;;;;;0.00;0.00;;;;;22.32;39.35;99084.78;4917611;28;45327;-75
2024/03/29 17:18:31;;;;;;;;;0.67;0.00;;;;;22.32;39.21;99084.78;4917621;28;45306;-75
2024/03/29 17:20:57;;;;;;;;;0.00;0.00;;;;;22.32;38.85;99082.16;4917991;28;45282;-75
2024/03/29 17:23:22;;;;;;;;;0.00;0.00;;;;;22.32;39.33;99090.09;4921103;28;45499;-75
2024/03/29 17:25:48;;;;;;;;;0.00;0.00;;;;;22.32;39.34;99087.44;4921282;28;46247;-75
2024/03/29 17:28:13;;;;;;;;;1.00;0.00;;;;;22.29;39.14;99088.69;4921277;28;45428;-75
2024/03/29 17:30:38;;;;;;;;;0.00;0.00;;;;;22.23;39.34;99076.34;4921295;28;45993;-75
2024/03/29 17:33:04;;;;;;;;;0.67;0.67;;;;;22.31;39.15;99099.88;4920901;28;45350;-75
2024/03/29 17:35:29;;;;;;;;;0.00;0.00;;;;;22.24;38.86;99097.31;4921078;28;45367;-75
2024/03/29 17:37:55;;;;;;;;;0.00;0.00;;;;;22.26;39.14;99099.75;4920902;28;45480;-75
2024/03/29 17:40:20;;;;;;;;;0.00;0.00;;;;;22.29;39.47;99104.59;4921239;28;45279;-75
2024/03/29 17:42:45;;;;;;;;;0.00;0.00;;;;;22.29;39.33;99102.75;4921186;28;45378;-75
2024/03/29 17:45:11;;;;;;;;;0.00;0.00;;;;;22.29;39.51;99105.41;4919495;28;47106;-75
2024/03/29 17:47:36;;;;;;;;;0.00;0.00;;;;;22.29;39.50;99100.13;4920614;28;45501;-75
2024/03/29 17:50:01;;;;;;;;;0.00;0.00;;;;;22.29;38.99;99100.13;4920864;28;45378;-75
2024/03/29 17:52:27;;;;;;;;;0.00;0.00;;;;;22.29;38.97;99108.06;4920983;28;45370;-75
2024/03/29 17:54:52;;;;;;;;;0.00;0.00;;;;;22.28;39.30;99106.44;4920746;28;46295;-75
2024/03/29 17:57:18;;;;;;;;;1.00;0.00;;;;;22.27;39.11;99110.13;4920874;28;45370;-75
2024/03/29 17:59:43;;;;;;;;;0.00;0.00;;;;;22.23;38.85;99101.00;4935737;28;45369;-75
2024/03/29 18:02:08;;;;;;;;;0.00;0.00;;;;;22.24;39.15;99096.50;4920697;28;45512;-75
2024/03/29 18:04:34;;;;;;;;;0.00;0.00;;;;;22.27;39.31;99102.19;4920595;28;46059;-75
2024/03/29 18:06:59;;;;;;;;;0.00;0.00;;;;;22.28;38.99;99102.97;4920759;28;45402;-75
2024/03/29 18:09:25;;;;;;;;;0.00;0.00;;;;;22.27;39.15;99098.72;4920784;28;45362;-75
2024/03/29 18:11:50;;;;;;;;;0.00;0.00;;;;;22.17;39.77;99102.69;4920662;28;45390;-75
2024/03/29 18:14:16;;;;;;;;;1.33;0.00;;;;;22.24;39.10;99109.75;4920091;28;46154;-75
2024/03/29 18:16:42;;;;;;;;;0.67;0.00;;;;;22.26;39.40;99118.28;4920261;28;45389;-75
2024/03/29 18:19:08;;;;;;;;;0.00;0.00;;;;;22.16;38.90;99106.38;4920560;28;45177;-75
2024/03/29 18:21:33;;;;;;;;;0.00;0.00;;;;;22.25;39.08;99117.47;4920326;28;45545;-76
2024/03/29 18:23:59;;;;;;;;;0.00;0.00;;;;;22.19;39.14;99110.44;4920366;28;46251;-74
2024/03/29 18:26:24;;;;;;;;;0.00;0.00;;;;;22.24;39.48;99123.81;4920308;28;45282;-75
2024/03/29 18:28:49;;;;;;;;;0.00;0.00;;;;;22.23;39.11;99127.50;4920262;28;45260;-75
2024/03/29 18:31:15;;;;;;;;;0.00;0.00;;;;;22.23;39.40;99131.97;4920353;28;45417;-75
2024/03/29 18:33:40;;;;;;;;;0.00;0.00;;;;;22.20;39.10;99127.94;4919680;28;45494;-75
2024/03/29 18:36:06;;;;;;;;;0.00;0.00;;;;;22.23;39.43;99143.38;4918948;28;45338;-75
2024/03/29 18:38:34;;;;;;;;;0.67;0.67;;;;;22.16;39.12;99132.88;4920378;28;45357;-76
2024/03/29 18:41:03;;;;;;;;;0.00;0.00;;;;;22.22;39.38;99147.09;4920404;28;45378;-75
2024/03/29 18:43:29;;;;;;;;;0.00;0.00;;;;;22.22;39.43;99140.97;4919557;28;46313;-73
2024/03/29 18:45:54;;;;;;;;;0.00;0.00;;;;;22.11;39.04;99131.91;4919892;28;45400;-75
2024/03/29 18:48:20;;;;;;;;;1.67;0.00;;;;;22.14;39.25;99137.59;4919440;28;45521;-87
2024/03/29 18:50:54;;;;;;;;;0.67;0.00;;;;;22.04;39.43;99126.72;4920232;28;45500;-84
2024/03/29 18:53:20;;;;;;;;;0.00;0.00;;;;;22.15;39.72;99141.84;4919805;28;47275;-87
2024/03/29 18:55:58;;;;;;;;;0.00;0.00;;;;;22.26;39.86;99158.84;4920088;28;45238;-80
2024/03/29 18:58:24;;;;;;;;;0.67;0.00;;;;;22.28;39.21;99166.56;4920326;28;45339;-87
2024/03/29 19:00:50;;;;;;;;;0.00;0.00;;;;;22.23;39.89;99150.50;4920209;28;45384;-82
2024/03/29 19:03:15;;;;;;;;;0.00;0.00;;;;;22.33;39.52;99174.63;4919624;28;46080;-81
2024/03/29 19:05:41;;;;;;;;;0.00;0.00;;;;;22.29;39.61;99163.69;4919606;28;45341;-81
2024/03/29 19:08:06;;;;;;;;;0.00;0.00;;;;;22.32;39.80;99166.94;4919711;28;45331;-81
2024/03/29 19:10:31;;;;;;;;;0.67;0.00;;;;;22.39;39.29;99176.41;4918358;28;45499;-72
2024/03/29 19:12:57;;;;;;;;;1.00;0.00;;;;;22.40;39.70;99191.25;4918937;28;46114;-78
2024/03/29 19:15:22;;;;;;;;;0.00;0.00;;;;;22.35;39.78;99185.81;4919261;28;45421;-77
2024/03/29 19:17:47;;;;;;;;;0.00;0.00;;;;;22.29;39.53;99178.78;4919638;28;45419;-77
2024/03/29 19:20:13;;;;;;;;;0.00;0.00;;;;;22.34;39.36;99188.69;4919456;28;45314;-77
2024/03/29 19:22:38;;;;;;;;;0.00;0.00;;;;;22.31;39.87;99187.31;4919417;28;46424;-78
2024/03/29 19:25:04;;;;;;;;;0.00;0.00;;;;;22.27;39.54;99192.25;4919471;28;45299;-78
2024/03/29 19:27:29;;;;;;;;;0.00;0.00;;;;;22.00;40.07;99154.66;4919131;28;45311;-78
2024/03/29 19:29:55;;;;;;;;;0.00;0.00;;;;;22.23;39.64;99193.72;4919485;28;45308;-78
2024/03/29 19:32:20;;;;;;;;;0.00;0.00;;;;;22.27;39.55;99215.28;4919322;28;46424;-78
2024/03/29 19:34:46;;;;;;;;;0.00;0.00;;;;;22.19;39.96;99200.50;4919633;28;45355;-76
2024/03/29 19:37:11;;;;;;;;;1.00;0.00;;;;;22.25;39.35;99215.50;4919383;28;45434;-72
2024/03/29 19:39:36;;;;;;;;;0.00;0.00;;;;;22.22;39.86;99215.97;4919312;28;45279;-72
2024/03/29 19:42:02;;;;;;;;;0.00;0.00;;;;;22.24;39.35;99228.97;4918759;28;46145;-71
2024/03/29 19:44:27;;;;;;;;;1.00;0.00;;;;;21.83;39.55;99161.31;4918363;28;45462;-87
2024/03/29 19:46:52;;;;;;;;;1.00;1.00;;;;;22.25;39.43;99231.38;4918126;28;45509;-84
2024/03/29 19:49:19;;;;;;;;;0.00;0.00;;;;;22.26;39.53;99222.41;4918425;28;45470;-86
2024/03/29 19:51:48;;;;;;;;;0.00;0.00;;;;;22.24;39.96;99216.53;4907512;28;45322;-88
2024/03/29 19:54:14;;;;;;;;;3.00;0.00;;;;;22.25;39.85;99222.66;4918651;28;45387;-79
2024/03/29 19:56:39;;;;;;;;;0.33;0.00;;;;;22.37;39.66;99238.59;4915984;28;45422;-78
2024/03/29 19:59:05;;;;;;;;;0.00;0.00;;;;;22.31;40.12;99229.69;4918157;28;45696;-74
2024/03/29 20:01:31;;;;;;;;;0.00;0.00;;;;;22.34;39.34;99239.84;4910731;28;46269;-80
2024/03/29 20:03:56;;;;;;;;;0.00;0.00;;;;;22.36;39.94;99251.03;4916305;28;45483;-76
2024/03/29 20:06:22;;;;;;;;;1.67;1.00;;;;;22.38;39.56;99261.41;4918189;28;45376;-76
2024/03/29 20:08:47;;;;;;;;;2.33;0.00;;;;;22.34;40.00;99254.94;4918480;28;45433;-74
2024/03/29 20:11:13;;;;;;;;;0.00;0.00;;;;;22.31;39.85;99255.38;4917420;28;46487;-74
2024/03/29 20:13:39;;;;;;;;;0.00;0.00;;;;;22.19;39.83;99240.22;4918445;28;45435;-74
2024/03/29 20:16:09;;;;;;;;;0.00;0.00;;;;;22.38;39.88;99275.47;4918069;28;45459;-75
2024/03/29 20:18:35;;;;;;;;;0.33;0.00;;;;;22.39;39.86;99268.34;4918552;28;45308;-73
2024/03/29 20:21:01;;;;;;;;;0.00;0.00;;;;;22.32;40.11;99257.81;4912545;28;45500;-76
2024/03/29 20:23:27;;;;;;;;;0.00;0.00;;;;;22.27;39.98;99247.06;4914581;28;45506;-90
2024/03/29 20:25:53;;;;;;;;;0.00;0.00;;;;;22.45;40.27;99279.91;4917729;28;45326;-75
2024/03/29 20:28:20;;;;;;;;;0.00;0.00;;;;;22.46;40.40;99273.53;4918159;28;45319;-75
2024/03/29 20:30:45;;;;;;;;;0.00;0.00;;;;;22.32;40.04;99251.72;4918027;28;46221;-75
2024/03/29 20:33:12;;;;;;;;;1.67;0.00;;;;;22.45;39.82;99278.06;4918073;28;45350;-79
2024/03/29 20:35:43;;;;;;;;;0.00;0.00;;;;;22.38;40.09;99264.06;4918384;28;45405;-79
2024/03/29 20:38:09;;;;;;;;;3.00;0.00;;;;;22.42;39.79;99267.09;4915067;28;45437;-82
2024/03/29 20:40:35;;;;;;;;;0.00;0.00;;;;;22.45;39.87;99266.66;4917159;28;45482;-75
2024/03/29 20:43:02;;;;;;;;;1.00;0.00;;;;;22.44;39.95;99260.53;4914277;28;45644;-76
2024/03/29 20:45:28;;;;;;;;;0.00;0.00;;;;;22.44;40.48;99252.59;4914019;28;45438;-74
2024/03/29 20:47:54;;;;;;;;;0.00;0.00;;;;;22.42;39.96;99253.84;4916133;28;45342;-75